カラチ の空港の天気 - METARとTAF

ジンナー国際空港(カラチ) ( OPKC / KHI ) - パキスタン Karachi
飛行場実況気象(Metar)
観測時間02/17 19:30 PKT (02/17 14:30 UTC)
風向・風速南西 4m/s
視程6000m
天気現象
全天の8割程度の雲 雲底高度 3050m
気温23℃
湿度57%
気圧1013hPa
METAROPKC 171430Z 23007KT 6000 BKN100 23/14 Q1013 NOSIG
過去の天気等 Google飛行場航空写真 Wunderground天気予報

過去48時間のMETAR

飛行場予報(TAF)
発表時間: 2/17 17:30 PKT (2/17 12:30 UTC)
予報対象時間: 17日20時 PKT ~ 18日5時 PKT
風向・風速西南西 5m/s
視程6000m
少しの雲 雲底高度 910m
全天の4割程度の雲 雲底高度 3050m
18日2時 PKT ~ 18日5時 PKT に一時的に
風向・風速西 5m/s
視程2000m
天気現象弱い雨
全天の4割程度の雲 雲底高度 910m
全天の8割程度の雲 雲底高度 1220m
全天を覆う雲 雲底高度 3050m
TAF OPKC 171230Z 1715/1724 25010KT 6000 FEW030 SCT100
TEMPO 1721/1724 27010KT 2000 -RA SCT030 BKN040 OVC100